Panther Creek, Texas
Current Conditions -  °F | °C
As of 8:53 AM on Thursday 18 Dec 2014 (Local Time) from KDWH Reporting Station
Haze Haze  
Wind Chill: 57°   Ceiling: 500
Heat Index: 57°   Visibility: 4mi
Dew Point: 55°   Wind: 5mph
Humidity: 93%   Direction: 10°N
Pressure: 30.11"   Gusts: NA
Location:  30.0773°N, 95.5178°W
Report Text: KDWH 181453Z 01004KT 4SM BR OVC005 14/13 A3011 RMK AO2 SLP195 60000 T01390128 51016
Loading
Personal Weather Stations






























Interactive Weather Map New forecast layout! Learn more

10-Day Weather Forecast

Advertisements
Track Severe Weather on mobile